createdAt,value
2022-08-25T00:00:13.439Z,99973.53
2022-08-25T00:02:54.943Z,99970.19
2022-08-25T00:05:29.401Z,99966.69
2022-08-25T00:08:01.061Z,99965.75
2022-08-25T00:10:28.809Z,99964.09
2022-08-25T00:12:56.243Z,99966.03
2022-08-25T00:15:24.006Z,99970.59
2022-08-25T00:17:51.941Z,99961.09
2022-08-25T00:20:19.518Z,99969.63
2022-08-25T00:22:47.219Z,99963.87
2022-08-25T00:25:15.062Z,99961.97
2022-08-25T00:27:43.768Z,99961.56
2022-08-25T00:30:16.714Z,99953.56
2022-08-25T00:32:51.493Z,99963.16
2022-08-25T00:35:26.006Z,99954.22
2022-08-25T00:37:53.548Z,99953.09
2022-08-25T00:40:21.655Z,99955.69
2022-08-25T00:42:49.467Z,99949.56
2022-08-25T00:45:17.044Z,99959.06
2022-08-25T00:47:44.492Z,99960.88
2022-08-25T00:50:12.650Z,99956.37
2022-08-25T00:52:54.299Z,99951.78
2022-08-25T00:55:26.129Z,99954.56
2022-08-25T00:58:07.875Z,99954.03
2022-08-25T01:00:39.527Z,99961.81
2022-08-25T01:03:07.232Z,99959.16
2022-08-25T01:05:35.306Z,99954.81
2022-08-25T01:08:03.396Z,99952.34
2022-08-25T01:10:37.019Z,99951.66
2022-08-25T01:13:21.359Z,99957.84
2022-08-25T01:15:50.139Z,99946.78
2022-08-25T01:18:17.977Z,99951.12
2022-08-25T01:20:49.983Z,99953.75
2022-08-25T01:23:17.650Z,99956.09
2022-08-25T01:26:07.813Z,99953.94
2022-08-25T01:28:37.003Z,99955.41
2022-08-25T01:31:05.297Z,99950.25
2022-08-25T01:33:52.146Z,99955.41
2022-08-25T01:36:21.030Z,99944.91
2022-08-25T01:38:48.951Z,99949.41
2022-08-25T01:41:22.710Z,99948.59
2022-08-25T01:43:50.191Z,99942.41
2022-08-25T01:46:17.950Z,99950.19
2022-08-25T01:48:45.399Z,99949.06
2022-08-25T01:51:15.142Z,99941.75
2022-08-25T01:53:44.328Z,99952.81
2022-08-25T01:56:15.241Z,99951.94
2022-08-25T01:58:46.873Z,99955.81
2022-08-25T02:01:20.604Z,99956.94
2022-08-25T02:03:50.987Z,99947.22
2022-08-25T02:06:28.909Z,99950.63
2022-08-25T02:09:21.979Z,99948.97
2022-08-25T02:11:49.424Z,99946.53
2022-08-25T02:14:18.305Z,99942.91
2022-08-25T02:16:48.957Z,99938.41
2022-08-25T02:19:17.408Z,99942.72
2022-08-25T02:21:44.928Z,99936.44
2022-08-25T02:24:12.840Z,99940.06
2022-08-25T02:26:41.875Z,99938.06
2022-08-25T02:29:09.956Z,99933.75
2022-08-25T02:31:39.286Z,99930.28
2022-08-25T02:34:08.119Z,99941.59
2022-08-25T02:36:36.668Z,99939.03
2022-08-25T02:39:06.560Z,99941.78
2022-08-25T02:41:35.026Z,99945.44
2022-08-25T02:44:03.935Z,99938.59
2022-08-25T02:46:31.911Z,99933.25
2022-08-25T02:48:59.995Z,99933.25
2022-08-25T02:51:31.613Z,99928.28
2022-08-25T02:54:02.149Z,99921.31
2022-08-25T02:56:31.532Z,99930.94
2022-08-25T02:59:00.391Z,99935.31
2022-08-25T03:01:29.252Z,99927.78
2022-08-25T03:03:57.523Z,99934.78
2022-08-25T03:06:25.489Z,99928.31
2022-08-25T03:08:53.267Z,99922.69
2022-08-25T03:11:21.792Z,99925.31
2022-08-25T03:13:51.061Z,99930.78
2022-08-25T03:16:19.053Z,99927.59
2022-08-25T03:18:46.872Z,99932.87
2022-08-25T03:21:16.230Z,99929.34
2022-08-25T03:23:43.933Z,99927.44
2022-08-25T03:26:30.029Z,99918.50
2022-08-25T03:28:57.474Z,99912.81
2022-08-25T03:31:28.649Z,99915.47
2022-08-25T03:33:56.107Z,99927.66
2022-08-25T03:36:23.899Z,99924.22
2022-08-25T03:38:52.852Z,99926.91
2022-08-25T03:41:27.917Z,99925.25
2022-08-25T03:43:57.102Z,99930.56
2022-08-25T03:46:27.332Z,99925.94
2022-08-25T03:48:55.566Z,99922.44
2022-08-25T03:51:26.429Z,99922.50
2022-08-25T03:53:54.195Z,99925.91
2022-08-25T03:56:21.702Z,99921.53
2022-08-25T03:58:49.546Z,99920.78
2022-08-25T04:01:18.215Z,99924.81
2022-08-25T04:03:46.820Z,99925.00
2022-08-25T04:06:16.439Z,99926.91
2022-08-25T04:08:43.931Z,99926.84
2022-08-25T04:11:14.246Z,99921.78
2022-08-25T04:13:42.436Z,99929.47
2022-08-25T04:16:12.907Z,99934.75
2022-08-25T04:18:41.844Z,99935.62
2022-08-25T04:21:10.113Z,99938.81
2022-08-25T04:23:40.611Z,99942.63
2022-08-25T04:26:10.803Z,99935.81
2022-08-25T04:28:38.981Z,99941.25
2022-08-25T04:31:08.256Z,99935.13
2022-08-25T04:33:37.198Z,99937.91
2022-08-25T04:36:11.483Z,99937.97
2022-08-25T04:38:41.589Z,99938.94
2022-08-25T04:41:10.593Z,99938.03
2022-08-25T04:43:39.684Z,99934.59
2022-08-25T04:46:15.541Z,99930.31
2022-08-25T04:48:49.425Z,99939.91
2022-08-25T04:51:19.731Z,99930.75
2022-08-25T04:53:47.375Z,99932.03
2022-08-25T04:56:17.481Z,99934.88
2022-08-25T04:58:47.138Z,99936.59
2022-08-25T05:01:17.484Z,99936.72
2022-08-25T05:03:47.830Z,99940.28
2022-08-25T05:06:16.360Z,99939.59
2022-08-25T05:08:45.875Z,99939.59
2022-08-25T05:11:17.403Z,99935.03
2022-08-25T05:13:51.357Z,99933.37
2022-08-25T05:16:20.067Z,99935.34
2022-08-25T05:18:48.010Z,99927.47
2022-08-25T05:21:18.190Z,99924.25
2022-08-25T05:23:47.035Z,99932.16
2022-08-25T05:26:20.442Z,99933.37
2022-08-25T05:28:53.171Z,99931.16
2022-08-25T05:31:22.848Z,99933.94
2022-08-25T05:33:51.941Z,99927.63
2022-08-25T05:36:20.180Z,99929.69
2022-08-25T05:38:48.322Z,99931.44
2022-08-25T05:41:19.046Z,99933.06
2022-08-25T05:43:48.913Z,99926.22
2022-08-25T05:46:18.546Z,99926.13
2022-08-25T05:48:46.234Z,99932.34
2022-08-25T05:51:15.070Z,99932.31
2022-08-25T05:53:44.960Z,99927.06
2022-08-25T05:56:14.053Z,99926.28
2022-08-25T05:58:42.587Z,99928.91
2022-08-25T06:01:36.683Z,99922.78
2022-08-25T06:04:05.438Z,99923.66
2022-08-25T06:06:32.959Z,99923.63
2022-08-25T06:09:01.956Z,99920.13
2022-08-25T06:11:30.599Z,99924.53
2022-08-25T06:13:58.022Z,99928.06
2022-08-25T06:16:25.482Z,99920.00
2022-08-25T06:18:53.297Z,99927.19
2022-08-25T06:21:20.981Z,99931.59
2022-08-25T06:23:49.306Z,99936.88
2022-08-25T06:26:20.873Z,99930.72
2022-08-25T06:28:53.268Z,99932.44
2022-08-25T06:31:22.467Z,99933.28
2022-08-25T06:33:50.696Z,99933.28
2022-08-25T06:36:19.385Z,99929.72
2022-08-25T06:38:47.640Z,99933.25
2022-08-25T06:41:16.568Z,99941.09
2022-08-25T06:43:49.031Z,99935.84
2022-08-25T06:46:20.537Z,99940.00
2022-08-25T06:48:48.579Z,99943.41
2022-08-25T06:51:19.387Z,99945.19
2022-08-25T06:53:49.026Z,99939.78
2022-08-25T06:56:18.363Z,99949.59
2022-08-25T06:58:46.341Z,99948.59
2022-08-25T07:01:20.626Z,99948.69
2022-08-25T07:03:49.233Z,99945.56
2022-08-25T07:06:20.594Z,99942.59
2022-08-25T07:08:48.170Z,99942.28
2022-08-25T07:11:16.550Z,99944.47
2022-08-25T07:13:46.025Z,99943.03
2022-08-25T07:16:16.968Z,99942.06
2022-08-25T07:18:45.528Z,99946.28
2022-08-25T07:21:13.702Z,99937.63
2022-08-25T07:23:42.017Z,99941.88
2022-08-25T07:26:36.852Z,99940.81
2022-08-25T07:29:03.570Z,99940.31
2022-08-25T07:31:31.648Z,99939.84
2022-08-25T07:34:17.755Z,99947.13
2022-08-25T07:36:45.507Z,99940.72
2022-08-25T07:39:13.084Z,99950.00
2022-08-25T07:41:42.130Z,99936.44
2022-08-25T07:44:11.941Z,99942.25
2022-08-25T07:46:40.354Z,99937.38
2022-08-25T07:49:16.623Z,99943.28
2022-08-25T07:52:05.670Z,99931.66
2022-08-25T07:54:38.198Z,99926.66
2022-08-25T07:57:07.684Z,99923.09
2022-08-25T07:59:40.382Z,99923.38
2022-08-25T08:02:18.804Z,99916.44
2022-08-25T08:04:49.751Z,99923.59
2022-08-25T08:07:19.804Z,99918.00
2022-08-25T08:09:56.170Z,99909.09
2022-08-25T08:12:34.825Z,99921.22
2022-08-25T08:15:04.255Z,99922.44
2022-08-25T08:17:39.602Z,99913.59
2022-08-25T08:20:09.972Z,99927.88
2022-08-25T08:22:41.289Z,99918.97
2022-08-25T08:25:13.724Z,99920.72
2022-08-25T08:27:46.981Z,99918.19
2022-08-25T08:30:15.104Z,99921.28
2022-08-25T08:33:06.342Z,99915.75
2022-08-25T08:35:30.932Z,99918.09
2022-08-25T08:37:58.342Z,99911.22
2022-08-25T08:40:25.994Z,99912.81
2022-08-25T08:42:58.592Z,99915.09
2022-08-25T08:45:44.029Z,99909.81
2022-08-25T08:48:28.177Z,99909.87
2022-08-25T08:51:19.988Z,99913.38
2022-08-25T08:54:18.615Z,99913.47
2022-08-25T08:56:48.968Z,99904.66
2022-08-25T08:59:30.296Z,99895.91
2022-08-25T09:02:00.764Z,99904.94
2022-08-25T09:04:44.320Z,99898.06
2022-08-25T09:07:25.843Z,99892.81
2022-08-25T09:09:53.905Z,99900.38
2022-08-25T09:12:58.623Z,99906.53
2022-08-25T09:15:46.246Z,99889.84
2022-08-25T09:18:27.145Z,99890.94
2022-08-25T09:21:14.616Z,99895.44
2022-08-25T09:24:04.809Z,99887.00
2022-08-25T09:27:03.963Z,99883.88
2022-08-25T09:29:45.273Z,99880.72
2022-08-25T09:32:13.219Z,99871.00
2022-08-25T09:34:43.780Z,99874.34
2022-08-25T09:37:11.213Z,99863.59
2022-08-25T09:39:39.204Z,99867.81
2022-08-25T09:42:06.675Z,99860.91
2022-08-25T09:44:39.006Z,99861.44
2022-08-25T09:47:08.270Z,99856.47
2022-08-25T09:49:41.907Z,99853.03
2022-08-25T09:52:34.313Z,99847.75
2022-08-25T09:55:28.013Z,99842.28
2022-08-25T09:57:57.505Z,99840.75
2022-08-25T10:00:36.766Z,99839.28
2022-08-25T10:03:36.501Z,99837.97
2022-08-25T10:06:13.754Z,99836.41
2022-08-25T10:08:44.911Z,99838.00
2022-08-25T10:12:01.209Z,99835.84
2022-08-25T10:14:44.315Z,99825.28
2022-08-25T10:17:29.563Z,99822.44
2022-08-25T10:20:09.627Z,99824.91
2022-08-25T10:22:38.907Z,99824.16
2022-08-25T10:25:10.188Z,99821.53
2022-08-25T10:27:49.977Z,99821.31
2022-08-25T10:30:24.268Z,99811.81
2022-08-25T10:32:54.869Z,99818.94
2022-08-25T10:35:30.399Z,99806.94
2022-08-25T10:38:21.658Z,99794.22
2022-08-25T10:40:57.121Z,99799.69
2022-08-25T10:43:35.892Z,99804.94
2022-08-25T10:46:16.601Z,99802.72
2022-08-25T10:49:03.224Z,99796.53
2022-08-25T10:51:46.137Z,99794.97
2022-08-25T10:54:40.474Z,99788.03
2022-08-25T10:57:38.027Z,99790.06
2022-08-25T11:00:06.972Z,99789.81
2022-08-25T11:02:53.496Z,99783.66
2022-08-25T11:05:41.582Z,99776.44
2022-08-25T11:08:21.488Z,99771.78
2022-08-25T11:10:57.048Z,99770.97
2022-08-25T11:13:27.673Z,99766.84
2022-08-25T11:16:18.772Z,99767.25
2022-08-25T11:18:53.395Z,99769.62
2022-08-25T11:21:42.518Z,99760.91
2022-08-25T11:24:38.136Z,99758.06
2022-08-25T11:27:13.648Z,99755.63
2022-08-25T11:29:42.736Z,99750.47
2022-08-25T11:32:10.646Z,99754.22
2022-08-25T11:34:43.863Z,99743.00
2022-08-25T11:37:30.895Z,99742.19
2022-08-25T11:40:50.024Z,99735.50
2022-08-25T11:43:48.635Z,99730.34
2022-08-25T11:46:19.509Z,99734.44
2022-08-25T11:49:08.835Z,99725.09
2022-08-25T11:51:48.393Z,99717.75
2022-08-25T11:54:20.927Z,99722.12
2022-08-25T11:56:59.831Z,99722.22
2022-08-25T11:59:52.017Z,99719.00
2022-08-25T12:02:50.557Z,99707.97
2022-08-25T12:05:18.944Z,99715.38
2022-08-25T12:07:47.026Z,99704.66
2022-08-25T12:10:23.476Z,99693.66
2022-08-25T12:12:57.318Z,99703.22
2022-08-25T12:15:43.086Z,99697.50
2022-08-25T12:18:15.176Z,99701.31
2022-08-25T12:20:55.180Z,99698.91
2022-08-25T12:23:44.595Z,99691.22
2022-08-25T12:26:29.009Z,99696.78
2022-08-25T12:29:14.311Z,99697.94
2022-08-25T12:31:59.160Z,99700.41
2022-08-25T12:34:45.306Z,99699.34
2022-08-25T12:37:16.873Z,99694.09
2022-08-25T12:39:58.802Z,99689.16
2022-08-25T12:42:38.223Z,99687.41
2022-08-25T12:45:39.465Z,99681.44
2022-08-25T12:48:28.816Z,99682.78
2022-08-25T12:51:01.959Z,99679.97
2022-08-25T12:53:36.519Z,99679.81
2022-08-25T12:56:39.099Z,99676.44
2022-08-25T12:59:15.289Z,99673.66
2022-08-25T13:02:07.218Z,99674.25
2022-08-25T13:04:59.040Z,99679.53
2022-08-25T13:07:29.744Z,99677.91
2022-08-25T13:10:20.551Z,99674.03
2022-08-25T13:13:15.774Z,99671.00
2022-08-25T13:15:57.504Z,99669.75
2022-08-25T13:18:27.451Z,99668.50
2022-08-25T13:21:25.520Z,99666.59
2022-08-25T13:24:04.689Z,99660.38
2022-08-25T13:26:48.451Z,99659.28
2022-08-25T13:29:37.387Z,99658.28
2022-08-25T13:32:12.899Z,99660.06
2022-08-25T13:34:43.125Z,99659.94
2022-08-25T13:37:31.177Z,99653.75
2022-08-25T13:40:24.794Z,99648.91
2022-08-25T13:42:57.457Z,99650.44
2022-08-25T13:45:30.078Z,99647.19
2022-08-25T13:47:59.572Z,99650.72
2022-08-25T13:50:27.307Z,99637.78
2022-08-25T13:52:59.351Z,99634.53
2022-08-25T13:55:50.492Z,99645.94
2022-08-25T13:58:24.423Z,99645.44
2022-08-25T14:01:22.733Z,99644.16
2022-08-25T14:04:31.986Z,99648.81
2022-08-25T14:07:15.446Z,99639.88
2022-08-25T14:09:50.154Z,99636.81
2022-08-25T14:12:45.504Z,99628.63
2022-08-25T14:15:20.147Z,99633.47
2022-08-25T14:18:13.988Z,99637.53
2022-08-25T14:20:50.693Z,99629.50
2022-08-25T14:23:21.018Z,99635.94
2022-08-25T14:25:50.685Z,99620.13
2022-08-25T14:28:20.938Z,99616.19
2022-08-25T14:30:52.368Z,99614.63
2022-08-25T14:33:22.229Z,99623.34
2022-08-25T14:35:53.787Z,99620.97
2022-08-25T14:38:22.412Z,99620.06
2022-08-25T14:40:51.090Z,99616.44
2022-08-25T14:43:18.558Z,99616.50
2022-08-25T14:45:51.984Z,99618.22
2022-08-25T14:48:28.619Z,99613.00
2022-08-25T14:50:58.370Z,99620.28
2022-08-25T14:53:26.493Z,99615.72
2022-08-25T14:55:58.791Z,99614.88
2022-08-25T14:58:32.383Z,99611.28
2022-08-25T15:01:03.125Z,99613.31
2022-08-25T15:03:39.055Z,99610.69
2022-08-25T15:09:10.696Z,99604.87
2022-08-25T15:11:41.677Z,99611.25
2022-08-25T15:14:12.105Z,99611.81
2022-08-25T15:16:43.285Z,99608.50
2022-08-25T15:19:17.055Z,99616.72
2022-08-25T15:21:45.904Z,99607.19
2022-08-25T15:24:17.750Z,99617.25
2022-08-25T15:29:24.516Z,99616.97
2022-08-25T15:31:52.187Z,99608.97
2022-08-25T15:34:19.648Z,99609.38
2022-08-25T15:36:47.729Z,99610.41
2022-08-25T15:39:15.985Z,99610.00
2022-08-25T15:41:52.182Z,99600.19
2022-08-25T15:44:20.423Z,99595.84
2022-08-25T15:46:50.080Z,99599.19
2022-08-25T15:49:20.870Z,99598.72
2022-08-25T15:51:52.637Z,99593.19
2022-08-25T15:54:20.847Z,99591.59
2022-08-25T15:56:48.231Z,99589.72
2022-08-25T15:59:16.069Z,99587.09
2022-08-25T16:01:46.471Z,99584.16
2022-08-25T16:04:14.610Z,99588.50
2022-08-25T16:06:42.004Z,99586.12
2022-08-25T16:09:09.619Z,99584.25
2022-08-25T16:11:38.788Z,99585.66
2022-08-25T16:14:06.443Z,99575.13
2022-08-25T16:16:33.998Z,99574.72
2022-08-25T16:19:02.418Z,99582.63
2022-08-25T16:21:32.679Z,99583.56
2022-08-25T16:24:07.207Z,99579.94
2022-08-25T16:26:36.577Z,99584.72
2022-08-25T16:29:06.598Z,99577.13
2022-08-25T16:31:34.192Z,99579.63
2022-08-25T16:34:02.069Z,99585.56
2022-08-25T16:36:29.700Z,99575.06
2022-08-25T16:38:57.821Z,99575.91
2022-08-25T16:41:34.109Z,99574.03
2022-08-25T16:44:03.733Z,99574.94
2022-08-25T16:46:31.494Z,99582.50
2022-08-25T16:49:04.652Z,99578.41
2022-08-25T16:51:32.743Z,99572.56
2022-08-25T16:54:22.190Z,99578.72
2022-08-25T16:56:53.732Z,99576.41
2022-08-25T16:59:23.793Z,99572.56
2022-08-25T17:01:52.337Z,99583.28
2022-08-25T17:04:20.689Z,99588.75
2022-08-25T17:06:51.607Z,99592.97
2022-08-25T17:09:23.747Z,99587.97
2022-08-25T17:11:54.245Z,99590.19
2022-08-25T17:14:22.521Z,99594.88
2022-08-25T17:16:51.264Z,99593.94
2022-08-25T17:19:19.038Z,99595.84
2022-08-25T17:21:47.777Z,99600.75
2022-08-25T17:24:18.049Z,99600.16
2022-08-25T17:26:49.815Z,99596.59
2022-08-25T17:29:18.378Z,99598.47
2022-08-25T17:31:48.345Z,99594.66
2022-08-25T17:34:16.868Z,99608.41
2022-08-25T17:36:49.332Z,99601.88
2022-08-25T17:39:18.434Z,99606.59
2022-08-25T17:41:45.937Z,99605.28
2022-08-25T17:44:14.261Z,99605.88
2022-08-25T17:46:47.492Z,99606.88
2022-08-25T17:49:17.125Z,99615.25
2022-08-25T17:51:45.196Z,99610.09
2022-08-25T17:54:13.271Z,99612.34
2022-08-25T17:56:40.951Z,99607.53
2022-08-25T17:59:08.629Z,99615.53
2022-08-25T18:01:40.865Z,99616.84
2022-08-25T18:04:16.970Z,99620.41
2022-08-25T18:06:46.431Z,99625.19
2022-08-25T18:09:15.362Z,99625.84
2022-08-25T18:11:42.767Z,99618.97
2022-08-25T18:14:11.459Z,99621.22
2022-08-25T18:16:40.374Z,99620.75
2022-08-25T18:19:10.938Z,99625.75
2022-08-25T18:21:39.394Z,99621.47
2022-08-25T18:24:07.406Z,99626.97
2022-08-25T18:26:35.633Z,99628.81
2022-08-25T18:29:04.059Z,99623.84
2022-08-25T18:31:31.710Z,99624.84
2022-08-25T18:33:59.848Z,99618.66
2022-08-25T18:36:27.514Z,99619.59
2022-08-25T18:39:14.363Z,99626.63
2022-08-25T18:41:44.974Z,99619.97
2022-08-25T18:44:12.696Z,99616.47
2022-08-25T18:46:43.452Z,99626.06
2022-08-25T18:49:15.702Z,99634.84
2022-08-25T18:51:45.043Z,99633.25
2022-08-25T18:54:22.385Z,99630.22
2022-08-25T18:56:52.957Z,99628.13
2022-08-25T18:59:23.397Z,99632.53
2022-08-25T19:01:53.091Z,99634.22
2022-08-25T19:04:20.909Z,99644.66
2022-08-25T19:06:56.169Z,99644.66
2022-08-25T19:09:24.128Z,99640.25
2022-08-25T19:11:52.692Z,99637.84
2022-08-25T19:14:22.190Z,99645.78
2022-08-25T19:16:52.031Z,99635.91
2022-08-25T19:19:20.901Z,99633.41
2022-08-25T19:21:48.512Z,99642.00
2022-08-25T19:24:19.428Z,99642.87
2022-08-25T19:26:48.825Z,99648.16
2022-08-25T19:29:19.287Z,99644.41
2022-08-25T19:31:48.993Z,99636.97
2022-08-25T19:34:30.414Z,99636.75
2022-08-25T19:36:59.901Z,99642.41
2022-08-25T19:39:27.800Z,99637.69
2022-08-25T19:41:56.846Z,99642.34
2022-08-25T19:44:25.433Z,99635.56
2022-08-25T19:46:56.494Z,99629.97
2022-08-25T19:49:31.792Z,99635.87
2022-08-25T19:52:04.181Z,99631.72
2022-08-25T19:54:38.405Z,99632.53
2022-08-25T19:57:13.662Z,99634.53
2022-08-25T19:59:55.851Z,99638.06
2022-08-25T20:02:25.733Z,99633.00
2022-08-25T20:04:59.654Z,99639.78
2022-08-25T20:07:30.343Z,99632.19
2022-08-25T20:09:59.744Z,99636.69
2022-08-25T20:12:28.128Z,99630.88
2022-08-25T20:14:56.792Z,99624.09
2022-08-25T20:17:28.585Z,99630.81
2022-08-25T20:19:59.419Z,99634.53
2022-08-25T20:22:29.444Z,99639.06
2022-08-25T20:24:59.876Z,99633.69
2022-08-25T20:27:41.002Z,99636.06
2022-08-25T20:30:13.368Z,99642.34
2022-08-25T20:32:41.103Z,99641.72
2022-08-25T20:35:10.368Z,99644.72
2022-08-25T20:37:44.947Z,99639.88
2022-08-25T20:40:14.328Z,99639.34
2022-08-25T20:42:43.569Z,99636.03
2022-08-25T20:45:13.300Z,99644.41
2022-08-25T20:47:40.970Z,99640.50
2022-08-25T20:50:10.618Z,99638.69
2022-08-25T20:52:39.110Z,99640.66
2022-08-25T20:55:10.258Z,99642.75
2022-08-25T20:57:38.590Z,99642.56
2022-08-25T21:00:07.401Z,99637.88
2022-08-25T21:02:35.147Z,99641.47
2022-08-25T21:05:02.791Z,99643.63
2022-08-25T21:07:30.668Z,99645.47
2022-08-25T21:09:58.414Z,99651.50
2022-08-25T21:12:25.888Z,99644.34
2022-08-25T21:14:54.422Z,99640.09
2022-08-25T21:17:22.091Z,99647.06
2022-08-25T21:19:49.826Z,99636.44
2022-08-25T21:22:17.334Z,99636.44
2022-08-25T21:24:45.641Z,99629.00
2022-08-25T21:27:13.245Z,99627.63
2022-08-25T21:29:53.687Z,99625.22
2022-08-25T21:32:23.642Z,99621.53
2022-08-25T21:34:52.911Z,99627.56
2022-08-25T21:37:21.210Z,99622.38
2022-08-25T21:39:49.164Z,99626.91
2022-08-25T21:42:17.557Z,99624.56
2022-08-25T21:44:45.100Z,99624.16
2022-08-25T21:47:12.787Z,99624.03
2022-08-25T21:49:40.236Z,99627.19
2022-08-25T21:52:07.970Z,99616.59
2022-08-25T21:54:35.706Z,99630.50
2022-08-25T21:57:04.645Z,99619.56
2022-08-25T21:59:34.995Z,99625.03
2022-08-25T22:02:05.260Z,99619.28
2022-08-25T22:04:33.553Z,99623.31
2022-08-25T22:07:01.340Z,99626.38
2022-08-25T22:09:30.689Z,99621.00
2022-08-25T22:11:59.201Z,99627.19
2022-08-25T22:14:27.528Z,99630.06
2022-08-25T22:16:55.703Z,99631.12
2022-08-25T22:19:23.874Z,99620.94
2022-08-25T22:21:53.261Z,99620.56
2022-08-25T22:24:21.575Z,99632.28
2022-08-25T22:26:49.428Z,99625.88
2022-08-25T22:29:25.417Z,99627.00
2022-08-25T22:31:59.361Z,99623.56
2022-08-25T22:34:34.420Z,99620.16
2022-08-25T22:37:03.802Z,99620.19
2022-08-25T22:39:32.201Z,99622.03
2022-08-25T22:42:03.284Z,99626.47
2022-08-25T22:44:30.826Z,99618.97
2022-08-25T22:46:58.271Z,99621.88
2022-08-25T22:49:28.866Z,99620.53
2022-08-25T22:51:56.322Z,99620.34
2022-08-25T22:54:25.586Z,99610.66
2022-08-25T22:56:53.718Z,99608.28
2022-08-25T22:59:22.538Z,99607.06
2022-08-25T23:01:52.633Z,99601.22
2022-08-25T23:04:22.660Z,99602.38
2022-08-25T23:06:50.559Z,99608.53
2022-08-25T23:09:18.048Z,99607.50
2022-08-25T23:11:45.733Z,99608.41
2022-08-25T23:14:13.131Z,99602.97
2022-08-25T23:16:41.860Z,99606.25
2022-08-25T23:19:13.559Z,99595.34
2022-08-25T23:22:01.815Z,99602.97
2022-08-25T23:24:30.882Z,99600.94
2022-08-25T23:26:59.624Z,99599.47
2022-08-25T23:29:28.862Z,99597.25
2022-08-25T23:31:57.553Z,99598.59
2022-08-25T23:34:25.830Z,99599.34
2022-08-25T23:36:53.713Z,99595.50
2022-08-25T23:39:22.195Z,99593.91
2022-08-25T23:41:50.301Z,99599.19
2022-08-25T23:44:18.956Z,99595.69
2022-08-25T23:46:47.816Z,99590.25
2022-08-25T23:49:18.256Z,99586.12
2022-08-25T23:51:47.684Z,99596.53
2022-08-25T23:54:17.981Z,99579.81
2022-08-25T23:56:51.613Z,99586.97
2022-08-25T23:59:24.164Z,99588.69
